Time;durP1;ratioP1;P1;durP2;ratioP2;P2;SDS_P1;SDS_P2;PMS_P1;PMS_P2;Temp;Humidity;BMP_temperature;BMP_pressure;BME280_temperature;BME280_humidity;BME280_pressure;Samples;Min_cycle;Max_cycle;Signal;HPM_P1;HPM_P2
2023/04/24 00:01:15;;;;;;;1.60;1.50;;;15.50;40.50;;;;;;10461606;28;20247;-70
2023/04/24 00:06:18;;;;;;;1.37;1.20;;;15.50;41.10;;;;;;10456126;28;20720;-70
2023/04/24 00:11:21;;;;;;;1.90;1.43;;;15.40;40.50;;;;;;10457093;28;20605;-70
2023/04/24 00:16:26;;;;;;;1.50;1.40;;;15.40;40.50;;;;;;10464532;28;20259;-70
2023/04/24 00:21:29;;;;;;;1.60;1.50;;;15.40;41.10;;;;;;10456020;28;20778;-70
2023/04/24 00:26:33;;;;;;;1.57;1.20;;;15.40;40.70;;;;;;10460078;28;20726;-70
2023/04/24 00:31:37;;;;;;;1.80;1.40;;;15.40;40.80;;;;;;10454688;28;20900;-70
2023/04/24 00:36:41;;;;;;;1.47;1.37;;;15.40;41.40;;;;;;10454917;28;20212;-70
2023/04/24 00:41:45;;;;;;;2.37;1.40;;;15.40;40.90;;;;;;10467486;28;20850;-70
2023/04/24 00:46:54;;;;;;;1.30;1.30;;;15.40;41.00;;;;;;10467813;28;20570;-70
2023/04/24 00:51:59;;;;;;;1.50;1.40;;;15.40;41.50;;;;;;10467031;28;20240;-70
2023/04/24 00:57:03;;;;;;;1.60;1.50;;;15.30;40.80;;;;;;10468774;28;20221;-70
2023/04/24 01:02:08;;;;;;;1.30;1.20;;;15.20;41.00;;;;;;10460404;28;20224;-69
2023/04/24 01:07:11;;;;;;;1.60;1.27;;;15.20;41.50;;;;;;10469500;28;20311;-70
2023/04/24 01:12:15;;;;;;;1.80;1.00;;;15.10;41.10;;;;;;10469863;28;20225;-70
2023/04/24 01:17:20;;;;;;;1.60;1.30;;;15.00;41.20;;;;;;10465057;28;20220;-69
2023/04/24 01:22:25;;;;;;;1.27;1.13;;;15.00;41.70;;;;;;10466006;28;20244;-71
2023/04/24 01:27:28;;;;;;;1.60;1.10;;;14.90;41.70;;;;;;10465547;28;20245;-70
2023/04/24 01:32:31;;;;;;;1.03;1.00;;;14.90;41.50;;;;;;10466486;28;20224;-70
2023/04/24 01:37:37;;;;;;;0.97;0.87;;;14.80;41.50;;;;;;10464531;28;20315;-72
2023/04/24 01:42:42;;;;;;;2.10;1.07;;;14.80;42.60;;;;;;10462265;28;20613;-70
2023/04/24 01:47:47;;;;;;;1.40;1.00;;;14.80;42.20;;;;;;10465901;28;20224;-70
2023/04/24 01:52:51;;;;;;;0.80;0.80;;;14.70;41.70;;;;;;10460853;28;20246;-71
2023/04/24 01:57:56;;;;;;;1.33;0.90;;;14.70;42.00;;;;;;10461014;28;20223;-70
2023/04/24 02:03:01;;;;;;;1.20;0.97;;;14.60;41.90;;;;;;10467140;28;20236;-71
2023/04/24 02:08:06;;;;;;;1.10;0.97;;;14.60;41.60;;;;;;10460160;28;20213;-71
2023/04/24 02:13:09;;;;;;;0.90;0.90;;;14.60;42.00;;;;;;10465373;28;21139;-71
2023/04/24 02:18:13;;;;;;;0.90;0.90;;;14.60;41.60;;;;;;10460341;28;20212;-71
2023/04/24 02:23:17;;;;;;;0.80;0.80;;;14.50;41.60;;;;;;10463493;28;20243;-70
2023/04/24 02:28:21;;;;;;;1.20;0.90;;;14.50;42.00;;;;;;10460977;28;20903;-70
2023/04/24 02:33:24;;;;;;;0.90;0.90;;;14.50;41.70;;;;;;10463411;28;20231;-70
2023/04/24 02:38:28;;;;;;;0.83;0.70;;;14.40;41.70;;;;;;10457367;28;20296;-71
2023/04/24 02:43:31;;;;;;;1.90;0.97;;;14.40;42.00;;;;;;10465946;28;20224;-71
2023/04/24 02:48:34;;;;;;;0.80;0.80;;;14.40;41.70;;;;;;10464089;28;20232;-70
2023/04/24 02:53:39;;;;;;;0.67;0.67;;;14.40;41.70;;;;;;10465523;28;20231;-71
2023/04/24 02:58:43;;;;;;;0.80;0.80;;;14.40;42.10;;;;;;10459636;28;20692;-70
2023/04/24 03:03:46;;;;;;;0.90;0.90;;;14.40;41.80;;;;;;10459156;28;20227;-70
2023/04/24 03:08:51;;;;;;;0.80;0.80;;;14.30;41.80;;;;;;10457728;28;20225;-73
2023/04/24 03:13:54;;;;;;;1.50;0.87;;;14.30;42.30;;;;;;10458056;28;20225;-72
2023/04/24 03:18:57;;;;;;;0.93;0.77;;;14.30;41.80;;;;;;10454970;28;20231;-72
2023/04/24 03:24:02;;;;;;;0.90;0.80;;;14.30;41.90;;;;;;10458323;28;20725;-73
2023/04/24 03:29:05;;;;;;;2.30;0.90;;;14.30;42.30;;;;;;10457804;28;20239;-73
2023/04/24 03:34:08;;;;;;;1.17;0.90;;;14.30;42.30;;;;;;10460031;28;20684;-72
2023/04/24 03:39:13;;;;;;;0.87;0.87;;;14.20;42.10;;;;;;10460176;28;20227;-73
2023/04/24 03:44:16;;;;;;;1.43;0.93;;;14.30;42.60;;;;;;10457760;28;20244;-73
2023/04/24 03:49:19;;;;;;;1.00;0.90;;;14.10;42.00;;;;;;10458498;28;20310;-73
2023/04/24 03:54:24;;;;;;;2.00;0.97;;;14.20;42.20;;;;;;10454308;28;20237;-72
2023/04/24 03:59:27;;;;;;;1.30;0.90;;;14.30;42.50;;;;;;10459624;28;20927;-73
2023/04/24 04:04:30;;;;;;;1.03;0.90;;;14.40;42.10;;;;;;10458390;28;20232;-73
2023/04/24 04:09:35;;;;;;;0.70;0.70;;;14.30;41.90;;;;;;10457517;28;20712;-73
2023/04/24 04:14:38;;;;;;;0.80;0.80;;;14.30;42.40;;;;;;10454109;28;20231;-73
2023/04/24 04:19:41;;;;;;;2.27;0.83;;;14.30;41.90;;;;;;10460491;28;20220;-72
2023/04/24 04:24:46;;;;;;;1.10;1.10;;;14.30;41.90;;;;;;10456441;28;20306;-72
2023/04/24 04:29:50;;;;;;;4.97;4.50;;;14.30;42.50;;;;;;10453592;28;20216;-72
2023/04/24 04:34:53;;;;;;;3.00;2.70;;;14.30;42.00;;;;;;10458096;28;20258;-73
2023/04/24 04:39:58;;;;;;;2.50;2.30;;;14.30;42.20;;;;;;10460977;28;20224;-70
2023/04/24 04:45:02;;;;;;;4.80;4.27;;;14.20;42.50;;;;;;10455185;28;20793;-69
2023/04/24 04:50:06;;;;;;;6.40;5.80;;;14.20;42.30;;;;;;10455418;28;20248;-71
2023/04/24 04:55:11;;;;;;;2.57;2.37;;;14.20;42.40;;;;;;10452468;28;20216;-70
2023/04/24 05:00:15;;;;;;;1.83;1.67;;;14.20;42.70;;;;;;10451572;28;20225;-70
2023/04/24 05:05:18;;;;;;;2.80;2.60;;;14.20;42.60;;;;;;10456600;28;20782;-70
2023/04/24 05:10:23;;;;;;;1.50;1.40;;;14.20;42.60;;;;;;10454168;28;20245;-68
2023/04/24 05:15:26;;;;;;;1.67;1.57;;;14.20;42.50;;;;;;10457702;28;20220;-68
2023/04/24 05:20:29;;;;;;;2.27;1.30;;;14.20;42.40;;;;;;10453252;28;20224;-69
2023/04/24 05:25:35;;;;;;;2.33;1.67;;;14.20;42.50;;;;;;10459039;28;20803;-72
2023/04/24 05:30:38;;;;;;;2.50;1.50;;;14.10;43.00;;;;;;10457988;28;20232;-67
2023/04/24 05:35:45;;;;;;;2.40;1.80;;;14.10;42.80;;;;;;10461321;28;20220;-67
2023/04/24 05:40:50;;;;;;;2.40;2.10;;;14.10;43.10;;;;;;10458085;28;20327;-67
2023/04/24 05:45:53;;;;;;;1.80;1.70;;;14.10;43.50;;;;;;10457630;28;20571;-67
2023/04/24 05:50:56;;;;;;;3.53;2.60;;;14.10;43.10;;;;;;10460742;28;20228;-66
2023/04/24 05:56:01;;;;;;;1.97;1.60;;;14.10;43.30;;;;;;10461287;28;20223;-66
2023/04/24 06:01:04;;;;;;;1.73;1.60;;;14.10;43.60;;;;;;10460756;28;20234;-67
2023/04/24 06:06:08;;;;;;;1.60;1.50;;;14.10;43.50;;;;;;10461922;28;20731;-67
2023/04/24 06:11:12;;;;;;;1.30;1.20;;;14.20;43.60;;;;;;10454194;28;20228;-66
2023/04/24 06:16:15;;;;;;;1.33;1.23;;;14.20;43.60;;;;;;10461074;28;20231;-73
2023/04/24 06:21:19;;;;;;;1.20;1.10;;;14.30;43.50;;;;;;10464183;28;20229;-73
2023/04/24 06:26:24;;;;;;;1.07;1.00;;;14.30;43.30;;;;;;10460417;28;21328;-73
2023/04/24 06:31:27;;;;;;;1.30;1.20;;;14.30;43.70;;;;;;10462325;28;20236;-73
2023/04/24 06:36:32;;;;;;;1.07;1.00;;;14.40;43.50;;;;;;10462288;28;20263;-73
2023/04/24 06:41:36;;;;;;;1.10;1.00;;;14.40;43.10;;;;;;10454712;28;20323;-73
2023/04/24 06:46:39;;;;;;;1.37;1.10;;;14.50;43.40;;;;;;10455691;28;20232;-73
2023/04/24 06:51:43;;;;;;;1.40;1.27;;;14.50;43.10;;;;;;10462672;28;20611;-66
2023/04/24 06:56:49;;;;;;;1.67;1.10;;;14.60;43.10;;;;;;10461341;28;20224;-66
2023/04/24 07:01:52;;;;;;;1.40;1.30;;;14.60;43.20;;;;;;10461086;28;20237;-66
2023/04/24 07:06:58;;;;;;;1.10;1.00;;;14.60;43.00;;;;;;10459237;28;20231;-73
2023/04/24 07:12:03;;;;;;;1.00;1.00;;;14.70;42.90;;;;;;10460939;28;20229;-73
2023/04/24 07:17:06;;;;;;;2.20;1.10;;;14.70;43.00;;;;;;10460710;28;20221;-73
2023/04/24 07:22:11;;;;;;;1.17;1.07;;;14.70;43.00;;;;;;10461422;28;20236;-66
2023/04/24 07:27:15;;;;;;;1.70;0.83;;;14.70;43.00;;;;;;10460767;28;20229;-66
2023/04/24 07:32:19;;;;;;;1.27;0.90;;;14.80;42.90;;;;;;10461915;28;20242;-67
2023/04/24 07:37:22;;;;;;;1.77;1.00;;;14.90;42.90;;;;;;10460089;28;20243;-67
2023/04/24 07:42:27;;;;;;;1.40;0.97;;;14.90;42.90;;;;;;10461973;28;20712;-67
2023/04/24 07:47:30;;;;;;;0.87;0.87;;;15.00;42.70;;;;;;10460110;28;20228;-67
2023/04/24 07:52:33;;;;;;;1.93;0.97;;;15.00;43.30;;;;;;10457469;28;20260;-66
2023/04/24 07:57:38;;;;;;;1.03;0.90;;;15.10;42.50;;;;;;10458075;28;20228;-66
2023/04/24 08:02:41;;;;;;;2.13;0.90;;;15.00;42.50;;;;;;10459193;28;20232;-67
2023/04/24 08:07:46;;;;;;;1.70;1.00;;;15.00;42.20;;;;;;10459029;28;20857;-68
2023/04/24 08:12:50;;;;;;;1.67;0.87;;;15.00;41.20;;;;;;10458057;28;20775;-67
2023/04/24 08:17:54;;;;;;;2.07;1.10;;;14.80;41.00;;;;;;10458931;28;20228;-67
2023/04/24 08:23:00;;;;;;;2.13;1.10;;;14.50;40.50;;;;;;10457848;28;20228;-67
2023/04/24 08:28:07;;;;;;;1.70;1.27;;;14.30;40.20;;;;;;10459842;28;20324;-67
2023/04/24 08:33:10;;;;;;;1.20;1.10;;;14.00;40.60;;;;;;10457770;28;20247;-67
2023/04/24 08:38:13;;;;;;;1.33;1.23;;;13.80;40.50;;;;;;10454818;28;20222;-67
2023/04/24 08:43:18;;;;;;;1.13;1.10;;;13.70;41.10;;;;;;10457887;28;20261;-67
2023/04/24 08:48:22;;;;;;;2.20;1.50;;;13.60;41.50;;;;;;10454472;28;20240;-67
2023/04/24 08:53:34;;;;;;;1.17;1.07;;;13.50;41.40;;;;;;10453503;28;20312;-66
2023/04/24 08:58:39;;;;;;;1.33;1.23;;;13.50;41.70;;;;;;10453016;28;20704;-68
2023/04/24 09:03:43;;;;;;;1.37;1.27;;;13.60;42.60;;;;;;10462140;28;20275;-69
2023/04/24 09:08:48;;;;;;;1.70;1.60;;;13.70;42.20;;;;;;10467287;28;20283;-69
2023/04/24 09:13:53;;;;;;;1.60;1.50;;;13.80;42.30;;;;;;10461173;28;20236;-68
2023/04/24 09:18:57;;;;;;;2.30;1.80;;;14.00;42.20;;;;;;10460691;28;20584;-68
2023/04/24 09:24:02;;;;;;;1.67;1.57;;;14.10;42.20;;;;;;10457632;28;20239;-69
2023/04/24 09:29:07;;;;;;;1.70;1.60;;;14.20;41.90;;;;;;10464094;28;20220;-69
2023/04/24 09:34:10;;;;;;;1.80;1.70;;;14.40;41.60;;;;;;10461168;28;20228;-67
2023/04/24 09:39:16;;;;;;;1.50;1.40;;;14.50;41.20;;;;;;10462405;28;20629;-67
2023/04/24 09:44:22;;;;;;;1.60;1.50;;;14.60;41.20;;;;;;10455735;28;20764;-67
2023/04/24 09:49:27;;;;;;;1.67;1.50;;;14.70;40.00;;;;;;10464580;28;20714;-74
2023/04/24 09:54:30;;;;;;;1.70;1.60;;;14.80;40.00;;;;;;10465683;28;20307;-74
2023/04/24 09:59:35;;;;;;;1.50;1.40;;;14.80;40.30;;;;;;10465110;28;20311;-74
2023/04/24 10:04:39;;;;;;;2.07;1.40;;;14.90;40.10;;;;;;10463256;28;20262;-74
2023/04/24 10:09:43;;;;;;;1.77;1.53;;;15.00;40.30;;;;;;10468367;28;20236;-75
2023/04/24 10:14:48;;;;;;;1.47;1.37;;;15.10;40.80;;;;;;10459782;28;20349;-75
2023/04/24 10:19:52;;;;;;;1.83;1.53;;;15.20;40.10;;;;;;10459074;28;20224;-68
2023/04/24 10:24:55;;;;;;;1.60;1.50;;;15.40;40.40;;;;;;10455690;28;20228;-68
2023/04/24 10:30:00;;;;;;;1.70;1.60;;;15.60;40.40;;;;;;10457794;28;20225;-67
2023/04/24 10:35:04;;;;;;;1.63;1.40;;;15.70;39.40;;;;;;10458026;28;20228;-68
2023/04/24 10:40:09;;;;;;;1.40;1.30;;;15.90;40.00;;;;;;10460986;28;20228;-68
2023/04/24 10:45:21;;;;;;;1.47;1.37;;;16.00;39.20;;;;;;10458107;28;20220;-68
2023/04/24 10:50:24;;;;;;;1.43;1.40;;;16.10;38.80;;;;;;10459290;28;20235;-68
2023/04/24 10:55:45;;;;;;;1.13;1.00;;;16.00;38.90;;;;;;10459799;28;20229;-68
2023/04/24 11:00:59;;;;;;;0.87;0.87;;;15.90;38.80;;;;;;10459451;28;20637;-68
2023/04/24 11:06:04;;;;;;;1.20;1.10;;;15.60;38.70;;;;;;10460112;28;20244;-68
2023/04/24 11:11:12;;;;;;;1.20;0.90;;;15.30;39.30;;;;;;10461385;28;20229;-68
2023/04/24 11:16:22;;;;;;;1.10;1.00;;;15.10;39.80;;;;;;10463613;28;20236;-68
2023/04/24 11:21:26;;;;;;;1.97;1.00;;;15.10;40.50;;;;;;10462310;28;20239;-68
2023/04/24 11:26:32;;;;;;;1.20;1.10;;;15.20;40.70;;;;;;10461045;28;20235;-66
2023/04/24 11:31:38;;;;;;;1.53;1.43;;;15.30;40.60;;;;;;10444216;28;20263;-66
2023/04/24 11:36:43;;;;;;;1.70;1.50;;;15.50;40.40;;;;;;10446249;28;20229;-66
2023/04/24 11:41:47;;;;;;;1.50;1.33;;;15.60;39.90;;;;;;10440935;28;20231;-66
2023/04/24 11:46:52;;;;;;;1.50;1.40;;;15.70;39.80;;;;;;10440138;28;20224;-67
2023/04/24 11:51:56;;;;;;;1.40;1.33;;;15.70;39.50;;;;;;10438488;28;20220;-66
2023/04/24 11:57:06;;;;;;;2.00;1.53;;;15.80;39.60;;;;;;10440312;28;20340;-67
2023/04/24 12:02:21;;;;;;;1.60;1.50;;;15.90;38.90;;;;;;10438115;28;20220;-66
2023/04/24 12:07:25;;;;;;;2.80;1.10;;;16.00;39.10;;;;;;10440574;28;20336;-66
2023/04/24 12:12:29;;;;;;;2.07;1.37;;;16.10;38.90;;;;;;10438625;28;20243;-66
2023/04/24 12:17:36;;;;;;;1.23;1.10;;;16.20;37.90;;;;;;10439250;28;20228;-66
2023/04/24 12:22:47;;;;;;;1.60;1.30;;;16.40;36.70;;;;;;10436402;28;20237;-67
2023/04/24 12:27:54;;;;;;;1.20;1.10;;;16.50;35.50;;;;;;10440668;28;20246;-69
2023/04/24 12:33:01;;;;;;;1.03;1.00;;;16.70;35.00;;;;;;10437565;28;20231;-71
2023/04/24 12:38:08;;;;;;;0.97;0.90;;;16.80;36.00;;;;;;10440157;28;20265;-69
2023/04/24 12:43:16;;;;;;;0.90;0.90;;;16.90;34.10;;;;;;10461429;28;20228;-69
2023/04/24 12:48:22;;;;;;;1.80;1.10;;;17.00;34.50;;;;;;10466890;28;20236;-69
2023/04/24 12:53:26;;;;;;;1.07;0.93;;;17.00;34.30;;;;;;10463187;28;20232;-69
2023/04/24 12:58:29;;;;;;;1.20;0.90;;;17.10;34.60;;;;;;10457085;28;20653;-69
2023/04/24 13:03:34;;;;;;;1.10;1.00;;;17.10;34.10;;;;;;10456704;28;20259;-69
2023/04/24 13:08:39;;;;;;;3.27;1.40;;;17.10;34.00;;;;;;10459401;28;20228;-69
2023/04/24 13:13:42;;;;;;;1.30;1.20;;;17.00;33.90;;;;;;10458810;28;20220;-69
2023/04/24 13:18:47;;;;;;;1.73;1.20;;;16.90;33.80;;;;;;10458917;28;20251;-69
2023/04/24 13:23:51;;;;;;;2.33;1.10;;;16.90;33.80;;;;;;10462604;28;20700;-69
2023/04/24 13:28:54;;;;;;;2.67;1.30;;;16.90;34.30;;;;;;10461813;28;20258;-67
2023/04/24 13:33:59;;;;;;;1.40;1.30;;;17.00;33.10;;;;;;10460131;28;20945;-67
2023/04/24 13:39:04;;;;;;;2.13;1.20;;;17.10;32.40;;;;;;10459934;28;20231;-68
2023/04/24 13:44:07;;;;;;;3.17;2.13;;;17.10;33.10;;;;;;10460899;28;20224;-67
2023/04/24 13:49:12;;;;;;;1.80;1.40;;;17.10;33.30;;;;;;10457648;28;20227;-67
2023/04/24 13:54:15;;;;;;;1.50;1.40;;;17.00;31.80;;;;;;10462278;28;20612;-67
2023/04/24 13:59:20;;;;;;;1.33;1.20;;;17.00;31.90;;;;;;10457710;28;20243;-67
2023/04/24 14:04:25;;;;;;;1.13;1.03;;;16.90;31.20;;;;;;10459081;28;20361;-67
2023/04/24 14:09:28;;;;;;;1.20;1.20;;;16.70;31.10;;;;;;10458705;28;20635;-67
2023/04/24 14:14:32;;;;;;;1.20;1.10;;;16.60;31.20;;;;;;10456366;28;20233;-67
2023/04/24 14:19:36;;;;;;;1.17;1.10;;;16.60;31.40;;;;;;10456077;28;20228;-67
2023/04/24 14:24:39;;;;;;;1.60;1.20;;;16.50;31.80;;;;;;10459712;28;20220;-67
2023/04/24 14:29:42;;;;;;;2.07;1.17;;;16.50;32.00;;;;;;10459498;28;20325;-67
2023/04/24 14:34:47;;;;;;;1.40;1.30;;;16.60;31.80;;;;;;10455148;28;20259;-69
2023/04/24 14:39:50;;;;;;;1.20;1.10;;;16.60;30.90;;;;;;10457826;28;20230;-69
2023/04/24 14:45:13;;;;;;;0.97;0.83;;;16.60;31.70;;;;;;10455362;28;20220;-69
2023/04/24 14:50:18;;;;;;;1.00;0.90;;;16.60;31.70;;;;;;10456978;28;20607;-69
2023/04/24 14:55:21;;;;;;;1.13;1.03;;;16.60;30.00;;;;;;10458451;28;20230;-69
2023/04/24 15:00:24;;;;;;;0.93;0.93;;;16.50;30.60;;;;;;10459354;28;20233;-69
2023/04/24 15:05:30;;;;;;;0.83;0.80;;;16.50;30.70;;;;;;10456450;28;20235;-69
2023/04/24 15:10:33;;;;;;;1.10;1.00;;;16.50;29.80;;;;;;10454415;28;20228;-69
2023/04/24 15:15:37;;;;;;;1.00;1.00;;;16.40;30.60;;;;;;10453072;28;20228;-69
2023/04/24 15:20:41;;;;;;;0.90;0.90;;;16.40;30.70;;;;;;10452505;28;20274;-70
2023/04/24 15:25:45;;;;;;;0.87;0.87;;;16.40;30.60;;;;;;10452589;28;20239;-70
2023/04/24 15:30:48;;;;;;;1.00;1.00;;;16.40;30.50;;;;;;10450906;28;20998;-69
2023/04/24 15:35:53;;;;;;;1.40;1.23;;;16.40;30.50;;;;;;10450079;28;20239;-69
2023/04/24 15:40:56;;;;;;;0.90;0.90;;;16.40;30.00;;;;;;10455496;28;20229;-70
2023/04/24 15:45:59;;;;;;;0.90;0.90;;;16.30;30.40;;;;;;10453944;28;20221;-70
2023/04/24 15:51:04;;;;;;;1.80;1.00;;;16.30;30.20;;;;;;10457709;28;20227;-74
2023/04/24 15:56:07;;;;;;;1.00;1.00;;;16.20;30.00;;;;;;10451926;28;20711;-73
2023/04/24 16:01:10;;;;;;;1.53;1.00;;;16.20;29.40;;;;;;10454406;28;20223;-73
2023/04/24 16:06:15;;;;;;;1.33;1.27;;;16.10;30.10;;;;;;10457807;28;20243;-73
2023/04/24 16:11:18;;;;;;;0.90;0.90;;;16.20;30.00;;;;;;10451571;28;20881;-73
2023/04/24 16:16:23;;;;;;;1.00;1.00;;;16.20;30.10;;;;;;10456316;28;20609;-73
2023/04/24 16:21:27;;;;;;;5.90;5.40;;;16.20;30.30;;;;;;10452894;28;20232;-73
2023/04/24 16:26:30;;;;;;;2.10;1.80;;;16.20;30.00;;;;;;10449560;28;20220;-66
2023/04/24 16:31:34;;;;;;;2.23;1.30;;;16.20;30.40;;;;;;10453274;28;20254;-69
2023/04/24 16:36:38;;;;;;;1.00;1.00;;;16.10;30.40;;;;;;10449749;28;20240;-69
2023/04/24 16:41:41;;;;;;;1.50;1.03;;;16.10;30.00;;;;;;10446165;28;20235;-69
2023/04/24 16:46:45;;;;;;;1.67;1.00;;;16.10;30.20;;;;;;10449174;28;21572;-67
2023/04/24 16:51:49;;;;;;;1.03;1.03;;;16.00;30.20;;;;;;10452067;28;20949;-67
2023/04/24 16:56:53;;;;;;;1.00;1.00;;;16.00;30.00;;;;;;10453175;28;20220;-67
2023/04/24 17:01:56;;;;;;;1.33;1.03;;;15.90;29.90;;;;;;10448458;28;20229;-66
2023/04/24 17:07:01;;;;;;;0.90;0.90;;;15.90;30.00;;;;;;10451752;28;20236;-66
2023/04/24 17:12:05;;;;;;;1.00;1.00;;;15.80;29.70;;;;;;10448743;28;20307;-67
2023/04/24 17:17:08;;;;;;;1.30;1.17;;;15.80;30.10;;;;;;10451622;28;20220;-67
2023/04/24 17:22:13;;;;;;;1.07;0.97;;;15.70;30.10;;;;;;10446938;28;20232;-67
2023/04/24 17:27:16;;;;;;;2.53;1.53;;;15.70;30.00;;;;;;10453488;28;20225;-67
2023/04/24 17:32:19;;;;;;;1.30;1.20;;;15.60;30.30;;;;;;10458898;28;20236;-67
2023/04/24 17:37:24;;;;;;;1.03;1.03;;;15.60;30.10;;;;;;10457787;28;20348;-67
2023/04/24 17:42:27;;;;;;;0.90;0.90;;;15.60;29.90;;;;;;10462279;28;20235;-67
2023/04/24 17:47:30;;;;;;;1.30;1.20;;;15.50;30.00;;;;;;10453149;28;20252;-67
2023/04/24 17:52:35;;;;;;;1.30;1.20;;;15.40;30.00;;;;;;10457074;28;20221;-67
2023/04/24 17:57:38;;;;;;;1.33;1.23;;;15.30;30.00;;;;;;10454831;28;20229;-67
2023/04/24 18:02:41;;;;;;;1.17;1.17;;;15.30;30.40;;;;;;10457355;28;20240;-67
2023/04/24 18:07:46;;;;;;;1.10;1.10;;;15.30;30.10;;;;;;10463366;28;20228;-67
2023/04/24 18:12:49;;;;;;;1.20;1.10;;;15.20;30.30;;;;;;10456463;28;20225;-67
2023/04/24 18:17:52;;;;;;;2.17;1.47;;;15.20;30.30;;;;;;10456883;28;20231;-67
2023/04/24 18:22:57;;;;;;;2.03;1.30;;;15.20;30.00;;;;;;10454115;28;20220;-67
2023/04/24 18:28:00;;;;;;;1.97;1.27;;;15.10;30.00;;;;;;10454951;28;20229;-73
2023/04/24 18:33:04;;;;;;;1.30;1.27;;;15.10;30.10;;;;;;10455695;28;20232;-71
2023/04/24 18:38:09;;;;;;;1.67;1.33;;;14.90;30.00;;;;;;10458514;28;21056;-71
2023/04/24 18:43:12;;;;;;;1.10;1.10;;;14.80;30.00;;;;;;10457458;28;20261;-72
2023/04/24 18:48:15;;;;;;;1.40;1.30;;;14.80;30.30;;;;;;10455117;28;20228;-71
2023/04/24 18:53:19;;;;;;;1.20;1.20;;;14.70;30.40;;;;;;10462602;28;20253;-72
2023/04/24 18:58:22;;;;;;;1.30;1.20;;;14.70;30.40;;;;;;10460250;28;20605;-72
2023/04/24 19:03:26;;;;;;;2.00;1.40;;;14.70;30.30;;;;;;10461251;28;20239;-71
2023/04/24 19:08:31;;;;;;;1.40;1.30;;;14.70;30.40;;;;;;10460740;28;20712;-72
2023/04/24 19:13:34;;;;;;;1.70;1.60;;;14.70;30.40;;;;;;10455660;28;20696;-71
2023/04/24 19:18:38;;;;;;;1.70;1.60;;;14.60;30.20;;;;;;10459188;28;20231;-72
2023/04/24 19:23:43;;;;;;;1.57;1.47;;;14.60;30.40;;;;;;10453017;28;20232;-67
2023/04/24 19:28:46;;;;;;;2.30;2.10;;;14.50;30.50;;;;;;10457470;28;20616;-67
2023/04/24 19:33:49;;;;;;;1.73;1.63;;;14.40;30.70;;;;;;10453629;28;20348;-68
2023/04/24 19:38:54;;;;;;;1.97;1.77;;;14.40;31.00;;;;;;10458576;28;20232;-67
2023/04/24 19:43:58;;;;;;;1.77;1.47;;;14.40;31.20;;;;;;10457055;28;20618;-67
2023/04/24 19:49:01;;;;;;;1.80;1.70;;;14.30;31.00;;;;;;10448406;28;20228;-67
2023/04/24 19:54:05;;;;;;;1.60;1.50;;;14.40;31.00;;;;;;10459105;28;20533;-67
2023/04/24 19:59:08;;;;;;;1.70;1.60;;;14.30;31.20;;;;;;10454610;28;20228;-68
2023/04/24 20:04:12;;;;;;;1.90;1.80;;;14.30;31.50;;;;;;10454427;28;20223;-69
2023/04/24 20:09:16;;;;;;;2.00;1.90;;;14.20;31.10;;;;;;10450717;28;20323;-68
2023/04/24 20:14:19;;;;;;;1.40;1.30;;;14.20;31.10;;;;;;10446455;28;20468;-68
2023/04/24 20:19:23;;;;;;;2.47;2.23;;;14.20;31.40;;;;;;10441449;28;20247;-68
2023/04/24 20:24:28;;;;;;;2.77;2.53;;;14.10;31.30;;;;;;10439564;28;20458;-68
2023/04/24 20:29:31;;;;;;;4.00;2.50;;;14.00;31.20;;;;;;10441924;28;20243;-69
2023/04/24 20:34:34;;;;;;;2.23;2.03;;;13.90;31.10;;;;;;10443697;28;20223;-68
2023/04/24 20:39:40;;;;;;;2.40;2.10;;;13.80;31.10;;;;;;10445042;28;20248;-68
2023/04/24 20:44:44;;;;;;;1.83;1.73;;;13.70;31.20;;;;;;10446139;28;20243;-68
2023/04/24 20:49:47;;;;;;;2.00;1.90;;;13.70;31.10;;;;;;10442019;28;20224;-68
2023/04/24 20:54:52;;;;;;;2.00;1.90;;;13.70;31.00;;;;;;10436138;28;20235;-68
2023/04/24 20:59:55;;;;;;;1.80;1.70;;;13.60;31.40;;;;;;10445380;28;20231;-69
2023/04/24 21:04:58;;;;;;;2.13;2.03;;;13.60;31.50;;;;;;10450710;28;20224;-68
2023/04/24 21:10:03;;;;;;;2.00;1.90;;;13.60;31.60;;;;;;10455525;28;20224;-68
2023/04/24 21:15:07;;;;;;;4.10;2.30;;;13.60;31.70;;;;;;10455480;28;20599;-69
2023/04/24 21:20:11;;;;;;;2.27;2.17;;;13.60;31.50;;;;;;10461647;28;20231;-68
2023/04/24 21:25:16;;;;;;;2.10;2.00;;;13.50;31.50;;;;;;10465699;28;20700;-68
2023/04/24 21:30:20;;;;;;;2.30;2.20;;;13.40;31.70;;;;;;10465568;28;20241;-69
2023/04/24 21:35:24;;;;;;;2.80;2.30;;;13.30;31.60;;;;;;10461415;28;20229;-68
2023/04/24 21:40:29;;;;;;;2.40;2.20;;;13.20;31.60;;;;;;10465452;28;20228;-68
2023/04/24 21:45:32;;;;;;;2.33;2.13;;;13.00;31.90;;;;;;10463051;28;20232;-68
2023/04/24 21:50:35;;;;;;;3.23;2.27;;;12.90;31.90;;;;;;10454979;28;20267;-69
2023/04/24 21:55:40;;;;;;;2.40;2.20;;;12.80;32.10;;;;;;10461428;28;20229;-68
2023/04/24 22:00:43;;;;;;;4.63;2.90;;;12.70;32.50;;;;;;10463237;28;20732;-68
2023/04/24 22:05:46;;;;;;;2.70;2.20;;;12.70;32.60;;;;;;10462161;28;20252;-68
2023/04/24 22:10:51;;;;;;;2.00;1.90;;;12.70;32.60;;;;;;10454015;28;20743;-68
2023/04/24 22:15:55;;;;;;;2.10;1.90;;;12.80;32.90;;;;;;10459530;28;20232;-69
2023/04/24 22:20:59;;;;;;;2.20;2.00;;;12.80;32.80;;;;;;10455911;28;20332;-68
2023/04/24 22:26:04;;;;;;;2.50;2.30;;;12.90;32.90;;;;;;10457775;28;20217;-68
2023/04/24 22:31:08;;;;;;;3.30;2.80;;;12.90;33.00;;;;;;10462015;28;20229;-68
2023/04/24 22:36:11;;;;;;;3.93;2.90;;;12.90;32.50;;;;;;10466184;28;20220;-66
2023/04/24 22:41:16;;;;;;;2.97;2.77;;;12.90;32.40;;;;;;10461468;28;20232;-67
2023/04/24 22:46:19;;;;;;;3.33;3.03;;;12.80;32.60;;;;;;10463543;28;20735;-66
2023/04/24 22:51:22;;;;;;;4.70;2.47;;;12.70;32.60;;;;;;10454945;28;20240;-66
2023/04/24 22:56:26;;;;;;;3.90;2.60;;;12.70;32.80;;;;;;10461881;28;20240;-67
2023/04/24 23:01:29;;;;;;;2.70;2.50;;;12.70;33.20;;;;;;10459730;28;20236;-66
2023/04/24 23:06:33;;;;;;;2.50;2.30;;;12.70;32.90;;;;;;10462812;28;20580;-66
2023/04/24 23:11:37;;;;;;;2.80;2.60;;;12.60;33.00;;;;;;10459923;28;20713;-66
2023/04/24 23:16:41;;;;;;;3.37;2.60;;;12.60;33.20;;;;;;10464048;28;20231;-66
2023/04/24 23:21:44;;;;;;;2.80;2.60;;;12.60;32.90;;;;;;10461750;28;20588;-66
2023/04/24 23:26:49;;;;;;;3.13;2.60;;;12.50;32.70;;;;;;10463764;28;20232;-66
2023/04/24 23:31:52;;;;;;;2.73;2.53;;;12.30;32.90;;;;;;10462491;28;20580;-66
2023/04/24 23:36:55;;;;;;;2.97;2.30;;;12.30;32.90;;;;;;10454755;28;20229;-66
2023/04/24 23:42:01;;;;;;;2.70;2.50;;;12.20;33.00;;;;;;10462258;28;20237;-66
2023/04/24 23:47:04;;;;;;;3.07;2.50;;;12.10;33.20;;;;;;10453392;28;20217;-66
2023/04/24 23:52:08;;;;;;;2.67;2.47;;;11.90;33.10;;;;;;10459538;28;20739;-66
2023/04/24 23:57:12;;;;;;;2.70;2.50;;;11.90;33.40;;;;;;10457594;28;20247;-67
